• 1385014 10153382300060425 128216538 n
  • 3
  • 6
  • 7
  • 1
  • 10
  • 未命名
  • 121
  • 55
  • 2
  • cargo

Click here and log in to see your monthly flight duties. 請按此登入個人班表區

Welcome aboard

Current Weather

[source: ADDS]
METAR
RCTP 270145Z 34006KT 290V040 2500 -RA BR SCT003 BKN005 BKN015 18/17 Q1024 TEMPO 3500 -RA BR RMK A3025 =
TAF
TAF RCTP 262300Z 2700/2806 31005KT 4500 -RA FEW012 BKN018 BKN040 TEMPO 2700/2704 3000 -RA BR SCT004 BKN008 BKN040 TEMPO 2704/2707 36008KT 6000 FEW010 SCT015 BKN032 BECMG 2707/2709 03012KT 6000 FEW015 BKN032 BECMG 2712/2714 07008KT TEMPO 2718/2724 4000 BR =